sensor_id;sensor_type;location;lat;lon;timestamp;P1;durP1;ratioP1;P2;durP2;ratioP2
19049;SDS011;9657;45.940;12.840;2023-02-03T00:01:56;104.80;;;55.93;;
19049;SDS011;9657;45.940;12.840;2023-02-03T00:04:23;104.63;;;55.30;;
19049;SDS011;9657;45.940;12.840;2023-02-03T00:06:50;97.70;;;55.37;;
19049;SDS011;9657;45.940;12.840;2023-02-03T00:09:17;98.27;;;54.73;;
19049;SDS011;9657;45.940;12.840;2023-02-03T00:11:45;98.60;;;55.37;;
19049;SDS011;9657;45.940;12.840;2023-02-03T00:14:13;104.33;;;57.07;;
19049;SDS011;9657;45.940;12.840;2023-02-03T00:16:41;99.73;;;56.27;;
19049;SDS011;9657;45.940;12.840;2023-02-03T00:19:08;100.33;;;55.60;;
19049;SDS011;9657;45.940;12.840;2023-02-03T00:21:35;99.23;;;52.90;;
19049;SDS011;9657;45.940;12.840;2023-02-03T00:24:02;104.43;;;56.03;;
19049;SDS011;9657;45.940;12.840;2023-02-03T00:26:29;94.73;;;54.47;;
19049;SDS011;9657;45.940;12.840;2023-02-03T00:28:58;92.60;;;57.63;;
19049;SDS011;9657;45.940;12.840;2023-02-03T00:31:26;92.33;;;54.13;;
19049;SDS011;9657;45.940;12.840;2023-02-03T00:33:54;102.03;;;54.43;;
19049;SDS011;9657;45.940;12.840;2023-02-03T00:36:21;99.57;;;53.13;;
19049;SDS011;9657;45.940;12.840;2023-02-03T00:38:49;99.63;;;54.73;;
19049;SDS011;9657;45.940;12.840;2023-02-03T00:41:16;94.47;;;53.93;;
19049;SDS011;9657;45.940;12.840;2023-02-03T00:43:44;97.00;;;54.57;;
19049;SDS011;9657;45.940;12.840;2023-02-03T00:46:11;98.27;;;55.00;;
19049;SDS011;9657;45.940;12.840;2023-02-03T00:48:40;93.40;;;53.40;;
19049;SDS011;9657;45.940;12.840;2023-02-03T00:51:07;97.77;;;54.47;;
19049;SDS011;9657;45.940;12.840;2023-02-03T00:53:34;103.43;;;60.00;;
19049;SDS011;9657;45.940;12.840;2023-02-03T00:56:01;98.77;;;52.27;;
19049;SDS011;9657;45.940;12.840;2023-02-03T00:58:28;98.73;;;57.90;;
19049;SDS011;9657;45.940;12.840;2023-02-03T01:00:55;98.37;;;53.37;;
19049;SDS011;9657;45.940;12.840;2023-02-03T01:03:22;92.80;;;52.00;;
19049;SDS011;9657;45.940;12.840;2023-02-03T01:05:51;91.97;;;51.00;;
19049;SDS011;9657;45.940;12.840;2023-02-03T01:08:18;95.50;;;52.43;;
19049;SDS011;9657;45.940;12.840;2023-02-03T01:10:45;99.93;;;54.10;;
19049;SDS011;9657;45.940;12.840;2023-02-03T01:13:12;96.40;;;52.27;;
19049;SDS011;9657;45.940;12.840;2023-02-03T01:15:44;93.90;;;51.50;;
19049;SDS011;9657;45.940;12.840;2023-02-03T01:18:11;93.50;;;51.87;;
19049;SDS011;9657;45.940;12.840;2023-02-03T01:20:38;96.63;;;51.47;;
19049;SDS011;9657;45.940;12.840;2023-02-03T01:23:06;95.97;;;52.27;;
19049;SDS011;9657;45.940;12.840;2023-02-03T01:25:34;95.30;;;53.10;;
19049;SDS011;9657;45.940;12.840;2023-02-03T01:28:01;93.77;;;50.37;;
19049;SDS011;9657;45.940;12.840;2023-02-03T01:30:30;89.77;;;53.00;;
19049;SDS011;9657;45.940;12.840;2023-02-03T01:32:56;95.17;;;52.80;;
19049;SDS011;9657;45.940;12.840;2023-02-03T01:35:24;87.80;;;53.13;;
19049;SDS011;9657;45.940;12.840;2023-02-03T01:37:51;90.60;;;50.70;;
19049;SDS011;9657;45.940;12.840;2023-02-03T01:40:19;101.37;;;52.50;;
19049;SDS011;9657;45.940;12.840;2023-02-03T01:42:46;100.77;;;52.50;;
19049;SDS011;9657;45.940;12.840;2023-02-03T01:45:13;91.13;;;57.50;;
19049;SDS011;9657;45.940;12.840;2023-02-03T01:47:42;93.57;;;57.90;;
19049;SDS011;9657;45.940;12.840;2023-02-03T01:50:13;91.83;;;58.87;;
19049;SDS011;9657;45.940;12.840;2023-02-03T01:52:46;88.83;;;56.50;;
19049;SDS011;9657;45.940;12.840;2023-02-03T01:55:19;87.80;;;56.13;;
19049;SDS011;9657;45.940;12.840;2023-02-03T01:57:50;91.00;;;57.73;;
19049;SDS011;9657;45.940;12.840;2023-02-03T02:02:56;89.37;;;56.20;;
19049;SDS011;9657;45.940;12.840;2023-02-03T02:05:28;93.30;;;57.97;;
19049;SDS011;9657;45.940;12.840;2023-02-03T02:07:58;92.53;;;58.63;;
19049;SDS011;9657;45.940;12.840;2023-02-03T02:10:29;94.90;;;57.10;;
19049;SDS011;9657;45.940;12.840;2023-02-03T02:12:59;96.40;;;59.07;;
19049;SDS011;9657;45.940;12.840;2023-02-03T02:15:30;94.03;;;57.23;;
19049;SDS011;9657;45.940;12.840;2023-02-03T02:18:10;90.37;;;56.70;;
19049;SDS011;9657;45.940;12.840;2023-02-03T02:26:58;91.07;;;57.50;;
19049;SDS011;9657;45.940;12.840;2023-02-03T02:29:40;87.63;;;52.33;;
19049;SDS011;9657;45.940;12.840;2023-02-03T02:32:40;88.13;;;55.70;;
19049;SDS011;9657;45.940;12.840;2023-02-03T02:35:21;91.93;;;57.90;;
19049;SDS011;9657;45.940;12.840;2023-02-03T02:37:58;89.20;;;55.43;;
19049;SDS011;9657;45.940;12.840;2023-02-03T02:40:31;89.20;;;55.73;;
19049;SDS011;9657;45.940;12.840;2023-02-03T02:43:02;91.80;;;55.40;;
19049;SDS011;9657;45.940;12.840;2023-02-03T02:45:36;92.17;;;49.57;;
19049;SDS011;9657;45.940;12.840;2023-02-03T02:48:14;92.90;;;52.40;;
19049;SDS011;9657;45.940;12.840;2023-02-03T02:50:47;93.27;;;53.20;;
19049;SDS011;9657;45.940;12.840;2023-02-03T02:53:18;86.33;;;48.90;;
19049;SDS011;9657;45.940;12.840;2023-02-03T02:55:49;85.63;;;49.13;;
19049;SDS011;9657;45.940;12.840;2023-02-03T02:58:17;91.23;;;49.90;;
19049;SDS011;9657;45.940;12.840;2023-02-03T03:00:46;85.60;;;46.57;;
19049;SDS011;9657;45.940;12.840;2023-02-03T03:03:14;92.93;;;51.83;;
19049;SDS011;9657;45.940;12.840;2023-02-03T03:05:43;89.97;;;49.67;;
19049;SDS011;9657;45.940;12.840;2023-02-03T03:08:13;98.53;;;50.90;;
19049;SDS011;9657;45.940;12.840;2023-02-03T03:10:43;91.90;;;50.13;;
19049;SDS011;9657;45.940;12.840;2023-02-03T03:13:12;91.33;;;50.97;;
19049;SDS011;9657;45.940;12.840;2023-02-03T03:15:45;93.33;;;48.97;;
19049;SDS011;9657;45.940;12.840;2023-02-03T03:18:16;93.43;;;51.07;;
19049;SDS011;9657;45.940;12.840;2023-02-03T03:20:47;90.33;;;51.03;;
19049;SDS011;9657;45.940;12.840;2023-02-03T03:23:17;95.83;;;49.47;;
19049;SDS011;9657;45.940;12.840;2023-02-03T03:25:50;85.97;;;48.30;;
19049;SDS011;9657;45.940;12.840;2023-02-03T03:28:24;84.03;;;46.43;;
19049;SDS011;9657;45.940;12.840;2023-02-03T03:30:56;87.27;;;49.50;;
19049;SDS011;9657;45.940;12.840;2023-02-03T03:33:24;94.37;;;49.97;;
19049;SDS011;9657;45.940;12.840;2023-02-03T03:35:52;89.43;;;49.67;;
19049;SDS011;9657;45.940;12.840;2023-02-03T03:38:27;88.93;;;50.07;;
19049;SDS011;9657;45.940;12.840;2023-02-03T03:41:00;85.37;;;46.60;;
19049;SDS011;9657;45.940;12.840;2023-02-03T03:43:31;87.87;;;54.13;;
19049;SDS011;9657;45.940;12.840;2023-02-03T03:46:05;90.50;;;48.60;;
19049;SDS011;9657;45.940;12.840;2023-02-03T03:48:39;79.47;;;48.03;;
19049;SDS011;9657;45.940;12.840;2023-02-03T03:51:12;84.63;;;46.97;;
19049;SDS011;9657;45.940;12.840;2023-02-03T03:53:44;88.13;;;47.17;;
19049;SDS011;9657;45.940;12.840;2023-02-03T03:56:16;92.97;;;50.77;;
19049;SDS011;9657;45.940;12.840;2023-02-03T03:58:46;85.43;;;52.17;;
19049;SDS011;9657;45.940;12.840;2023-02-03T04:01:15;88.23;;;48.80;;
19049;SDS011;9657;45.940;12.840;2023-02-03T04:03:47;88.97;;;47.97;;
19049;SDS011;9657;45.940;12.840;2023-02-03T04:06:17;91.23;;;48.23;;
19049;SDS011;9657;45.940;12.840;2023-02-03T04:08:44;79.93;;;45.30;;
19049;SDS011;9657;45.940;12.840;2023-02-03T04:11:11;86.73;;;47.27;;
19049;SDS011;9657;45.940;12.840;2023-02-03T04:13:59;85.63;;;48.43;;
19049;SDS011;9657;45.940;12.840;2023-02-03T04:16:26;87.60;;;46.43;;
19049;SDS011;9657;45.940;12.840;2023-02-03T04:18:54;88.53;;;48.73;;
19049;SDS011;9657;45.940;12.840;2023-02-03T04:21:22;87.13;;;47.70;;
19049;SDS011;9657;45.940;12.840;2023-02-03T04:23:49;84.13;;;48.30;;
19049;SDS011;9657;45.940;12.840;2023-02-03T04:26:16;77.80;;;45.50;;
19049;SDS011;9657;45.940;12.840;2023-02-03T04:28:43;87.17;;;46.07;;
19049;SDS011;9657;45.940;12.840;2023-02-03T04:31:10;80.43;;;46.37;;
19049;SDS011;9657;45.940;12.840;2023-02-03T04:33:37;83.53;;;46.47;;
19049;SDS011;9657;45.940;12.840;2023-02-03T04:36:06;81.00;;;49.70;;
19049;SDS011;9657;45.940;12.840;2023-02-03T04:38:34;78.20;;;45.47;;
19049;SDS011;9657;45.940;12.840;2023-02-03T04:41:01;79.70;;;51.27;;
19049;SDS011;9657;45.940;12.840;2023-02-03T04:43:28;81.77;;;52.50;;
19049;SDS011;9657;45.940;12.840;2023-02-03T04:45:55;82.97;;;50.77;;
19049;SDS011;9657;45.940;12.840;2023-02-03T04:48:24;78.73;;;51.67;;
19049;SDS011;9657;45.940;12.840;2023-02-03T04:50:51;81.13;;;51.93;;
19049;SDS011;9657;45.940;12.840;2023-02-03T04:53:19;83.80;;;52.80;;
19049;SDS011;9657;45.940;12.840;2023-02-03T04:55:46;80.30;;;51.40;;
19049;SDS011;9657;45.940;12.840;2023-02-03T04:58:14;83.23;;;51.43;;
19049;SDS011;9657;45.940;12.840;2023-02-03T05:00:41;83.33;;;45.63;;
19049;SDS011;9657;45.940;12.840;2023-02-03T05:03:08;81.73;;;46.77;;
19049;SDS011;9657;45.940;12.840;2023-02-03T05:05:35;81.90;;;44.03;;
19049;SDS011;9657;45.940;12.840;2023-02-03T05:08:02;80.30;;;45.73;;
19049;SDS011;9657;45.940;12.840;2023-02-03T05:10:30;84.83;;;46.00;;
19049;SDS011;9657;45.940;12.840;2023-02-03T05:12:57;81.03;;;44.80;;
19049;SDS011;9657;45.940;12.840;2023-02-03T05:15:24;82.73;;;45.30;;
19049;SDS011;9657;45.940;12.840;2023-02-03T05:17:51;82.87;;;43.83;;
19049;SDS011;9657;45.940;12.840;2023-02-03T05:20:19;82.90;;;46.70;;
19049;SDS011;9657;45.940;12.840;2023-02-03T05:22:46;83.17;;;46.23;;
19049;SDS011;9657;45.940;12.840;2023-02-03T05:25:13;82.90;;;44.77;;
19049;SDS011;9657;45.940;12.840;2023-02-03T05:27:42;82.27;;;44.33;;
19049;SDS011;9657;45.940;12.840;2023-02-03T05:30:09;77.50;;;43.93;;
19049;SDS011;9657;45.940;12.840;2023-02-03T05:32:37;83.27;;;46.60;;
19049;SDS011;9657;45.940;12.840;2023-02-03T05:35:04;75.73;;;44.53;;
19049;SDS011;9657;45.940;12.840;2023-02-03T05:37:31;73.77;;;41.27;;
19049;SDS011;9657;45.940;12.840;2023-02-03T05:39:58;71.43;;;40.57;;
19049;SDS011;9657;45.940;12.840;2023-02-03T05:42:46;75.17;;;44.10;;
19049;SDS011;9657;45.940;12.840;2023-02-03T05:45:13;75.17;;;39.83;;
19049;SDS011;9657;45.940;12.840;2023-02-03T05:47:40;69.63;;;41.73;;
19049;SDS011;9657;45.940;12.840;2023-02-03T05:50:07;75.30;;;40.93;;
19049;SDS011;9657;45.940;12.840;2023-02-03T05:52:35;78.73;;;45.47;;
19049;SDS011;9657;45.940;12.840;2023-02-03T05:55:02;71.83;;;39.47;;
19049;SDS011;9657;45.940;12.840;2023-02-03T05:57:29;72.77;;;39.97;;
19049;SDS011;9657;45.940;12.840;2023-02-03T05:59:57;73.33;;;39.13;;
19049;SDS011;9657;45.940;12.840;2023-02-03T06:02:24;70.87;;;38.50;;
19049;SDS011;9657;45.940;12.840;2023-02-03T06:04:51;69.87;;;41.17;;
19049;SDS011;9657;45.940;12.840;2023-02-03T06:07:18;69.90;;;38.20;;
19049;SDS011;9657;45.940;12.840;2023-02-03T06:09:45;79.63;;;40.70;;
19049;SDS011;9657;45.940;12.840;2023-02-03T06:12:13;73.43;;;40.07;;
19049;SDS011;9657;45.940;12.840;2023-02-03T06:14:40;68.33;;;38.90;;
19049;SDS011;9657;45.940;12.840;2023-02-03T06:17:09;72.73;;;43.13;;
19049;SDS011;9657;45.940;12.840;2023-02-03T06:19:36;71.67;;;38.47;;
19049;SDS011;9657;45.940;12.840;2023-02-03T06:22:03;69.47;;;37.57;;
19049;SDS011;9657;45.940;12.840;2023-02-03T06:24:30;72.83;;;40.17;;
19049;SDS011;9657;45.940;12.840;2023-02-03T06:26:57;69.27;;;43.87;;
19049;SDS011;9657;45.940;12.840;2023-02-03T06:29:24;71.60;;;38.30;;
19049;SDS011;9657;45.940;12.840;2023-02-03T06:31:51;71.50;;;43.83;;
19049;SDS011;9657;45.940;12.840;2023-02-03T06:34:19;66.20;;;42.57;;
19049;SDS011;9657;45.940;12.840;2023-02-03T06:36:46;68.37;;;43.47;;
19049;SDS011;9657;45.940;12.840;2023-02-03T06:39:13;73.33;;;44.43;;
19049;SDS011;9657;45.940;12.840;2023-02-03T06:41:40;67.37;;;44.23;;
19049;SDS011;9657;45.940;12.840;2023-02-03T06:44:07;69.63;;;43.73;;
19049;SDS011;9657;45.940;12.840;2023-02-03T06:46:34;68.87;;;43.50;;
19049;SDS011;9657;45.940;12.840;2023-02-03T06:49:01;69.07;;;43.40;;
19049;SDS011;9657;45.940;12.840;2023-02-03T06:51:30;66.20;;;42.67;;
19049;SDS011;9657;45.940;12.840;2023-02-03T06:53:57;70.03;;;42.63;;
19049;SDS011;9657;45.940;12.840;2023-02-03T06:56:24;66.13;;;42.53;;
19049;SDS011;9657;45.940;12.840;2023-02-03T06:58:51;69.50;;;44.10;;
19049;SDS011;9657;45.940;12.840;2023-02-03T07:01:18;67.00;;;41.40;;
19049;SDS011;9657;45.940;12.840;2023-02-03T07:03:45;68.87;;;43.83;;
19049;SDS011;9657;45.940;12.840;2023-02-03T07:06:12;69.67;;;38.27;;
19049;SDS011;9657;45.940;12.840;2023-02-03T07:08:41;66.03;;;38.00;;
19049;SDS011;9657;45.940;12.840;2023-02-03T07:11:08;70.07;;;36.53;;
19049;SDS011;9657;45.940;12.840;2023-02-03T07:13:35;65.57;;;37.63;;
19049;SDS011;9657;45.940;12.840;2023-02-03T07:16:02;64.23;;;40.77;;
19049;SDS011;9657;45.940;12.840;2023-02-03T07:18:30;63.30;;;40.87;;
19049;SDS011;9657;45.940;12.840;2023-02-03T07:20:57;69.23;;;42.77;;
19049;SDS011;9657;45.940;12.840;2023-02-03T07:23:24;65.93;;;41.03;;
19049;SDS011;9657;45.940;12.840;2023-02-03T07:25:52;64.40;;;40.93;;
19049;SDS011;9657;45.940;12.840;2023-02-03T07:28:19;62.83;;;40.43;;
19049;SDS011;9657;45.940;12.840;2023-02-03T07:30:47;66.40;;;40.63;;
19049;SDS011;9657;45.940;12.840;2023-02-03T07:33:14;67.50;;;42.17;;
19049;SDS011;9657;45.940;12.840;2023-02-03T07:35:41;65.83;;;41.73;;
19049;SDS011;9657;45.940;12.840;2023-02-03T07:38:08;66.73;;;40.90;;
19049;SDS011;9657;45.940;12.840;2023-02-03T07:40:36;68.53;;;41.90;;
19049;SDS011;9657;45.940;12.840;2023-02-03T07:43:05;71.47;;;43.37;;
19049;SDS011;9657;45.940;12.840;2023-02-03T07:45:32;64.67;;;40.97;;
19049;SDS011;9657;45.940;12.840;2023-02-03T07:47:59;65.70;;;41.20;;
19049;SDS011;9657;45.940;12.840;2023-02-03T07:50:26;67.97;;;41.00;;
19049;SDS011;9657;45.940;12.840;2023-02-03T07:52:53;69.73;;;42.30;;
19049;SDS011;9657;45.940;12.840;2023-02-03T07:55:20;63.60;;;39.60;;
19049;SDS011;9657;45.940;12.840;2023-02-03T07:57:48;61.27;;;39.80;;
19049;SDS011;9657;45.940;12.840;2023-02-03T08:00:16;64.53;;;39.33;;
19049;SDS011;9657;45.940;12.840;2023-02-03T08:02:44;64.33;;;34.10;;
19049;SDS011;9657;45.940;12.840;2023-02-03T08:05:12;62.97;;;37.60;;
19049;SDS011;9657;45.940;12.840;2023-02-03T08:07:40;61.87;;;33.17;;
19049;SDS011;9657;45.940;12.840;2023-02-03T08:10:07;62.97;;;33.00;;
19049;SDS011;9657;45.940;12.840;2023-02-03T08:12:35;59.73;;;34.80;;
19049;SDS011;9657;45.940;12.840;2023-02-03T08:15:03;60.50;;;33.33;;
19049;SDS011;9657;45.940;12.840;2023-02-03T08:17:32;56.57;;;31.13;;
19049;SDS011;9657;45.940;12.840;2023-02-03T08:19:59;57.07;;;31.50;;
19049;SDS011;9657;45.940;12.840;2023-02-03T08:22:26;57.07;;;31.37;;
19049;SDS011;9657;45.940;12.840;2023-02-03T08:24:53;62.37;;;32.97;;
19049;SDS011;9657;45.940;12.840;2023-02-03T08:27:21;64.33;;;32.87;;
19049;SDS011;9657;45.940;12.840;2023-02-03T08:29:48;59.63;;;33.00;;
19049;SDS011;9657;45.940;12.840;2023-02-03T08:32:16;62.80;;;32.97;;
19049;SDS011;9657;45.940;12.840;2023-02-03T08:34:46;60.67;;;32.40;;
19049;SDS011;9657;45.940;12.840;2023-02-03T08:37:15;58.47;;;30.77;;
19049;SDS011;9657;45.940;12.840;2023-02-03T08:39:43;55.73;;;31.23;;
19049;SDS011;9657;45.940;12.840;2023-02-03T08:42:10;58.53;;;32.90;;
19049;SDS011;9657;45.940;12.840;2023-02-03T08:44:37;59.10;;;32.07;;
19049;SDS011;9657;45.940;12.840;2023-02-03T08:47:04;58.40;;;30.60;;
19049;SDS011;9657;45.940;12.840;2023-02-03T08:49:32;53.40;;;31.53;;
19049;SDS011;9657;45.940;12.840;2023-02-03T08:52:04;58.77;;;33.30;;
19049;SDS011;9657;45.940;12.840;2023-02-03T08:54:32;55.03;;;31.80;;
19049;SDS011;9657;45.940;12.840;2023-02-03T08:56:59;56.30;;;32.03;;
19049;SDS011;9657;45.940;12.840;2023-02-03T08:59:26;56.37;;;32.47;;
19049;SDS011;9657;45.940;12.840;2023-02-03T09:01:54;58.00;;;30.43;;
19049;SDS011;9657;45.940;12.840;2023-02-03T09:04:24;59.20;;;30.83;;
19049;SDS011;9657;45.940;12.840;2023-02-03T09:06:51;59.03;;;31.07;;
19049;SDS011;9657;45.940;12.840;2023-02-03T09:09:20;53.23;;;30.13;;
19049;SDS011;9657;45.940;12.840;2023-02-03T09:11:48;61.43;;;33.67;;
19049;SDS011;9657;45.940;12.840;2023-02-03T09:14:15;52.00;;;30.50;;
19049;SDS011;9657;45.940;12.840;2023-02-03T09:16:42;56.83;;;32.37;;
19049;SDS011;9657;45.940;12.840;2023-02-03T09:19:09;58.07;;;32.67;;
19049;SDS011;9657;45.940;12.840;2023-02-03T09:21:37;54.00;;;30.93;;
19049;SDS011;9657;45.940;12.840;2023-02-03T09:24:05;56.67;;;28.80;;
19049;SDS011;9657;45.940;12.840;2023-02-03T09:26:34;51.77;;;28.60;;
19049;SDS011;9657;45.940;12.840;2023-02-03T09:29:01;54.93;;;30.03;;
19049;SDS011;9657;45.940;12.840;2023-02-03T09:31:28;52.87;;;30.27;;
19049;SDS011;9657;45.940;12.840;2023-02-03T09:33:55;55.33;;;30.43;;
19049;SDS011;9657;45.940;12.840;2023-02-03T09:36:24;51.17;;;30.67;;
19049;SDS011;9657;45.940;12.840;2023-02-03T09:38:51;53.70;;;29.03;;
19049;SDS011;9657;45.940;12.840;2023-02-03T09:41:21;50.50;;;28.90;;
19049;SDS011;9657;45.940;12.840;2023-02-03T09:44:02;52.93;;;34.00;;
19049;SDS011;9657;45.940;12.840;2023-02-03T09:46:37;52.00;;;29.03;;
19049;SDS011;9657;45.940;12.840;2023-02-03T09:49:08;51.77;;;29.03;;
19049;SDS011;9657;45.940;12.840;2023-02-03T09:51:42;51.43;;;30.33;;
19049;SDS011;9657;45.940;12.840;2023-02-03T09:54:15;51.37;;;27.77;;
19049;SDS011;9657;45.940;12.840;2023-02-03T09:56:45;49.73;;;32.10;;
19049;SDS011;9657;45.940;12.840;2023-02-03T09:59:17;43.63;;;26.57;;
19049;SDS011;9657;45.940;12.840;2023-02-03T10:01:48;44.83;;;27.37;;
19049;SDS011;9657;45.940;12.840;2023-02-03T10:04:23;54.30;;;31.13;;
19049;SDS011;9657;45.940;12.840;2023-02-03T10:06:57;50.07;;;31.60;;
19049;SDS011;9657;45.940;12.840;2023-02-03T10:09:34;44.43;;;31.30;;
19049;SDS011;9657;45.940;12.840;2023-02-03T10:12:15;44.33;;;30.27;;
19049;SDS011;9657;45.940;12.840;2023-02-03T10:15:05;46.73;;;30.73;;
19049;SDS011;9657;45.940;12.840;2023-02-03T10:17:47;48.27;;;31.40;;
19049;SDS011;9657;45.940;12.840;2023-02-03T10:20:18;49.00;;;31.87;;
19049;SDS011;9657;45.940;12.840;2023-02-03T10:22:49;46.20;;;29.57;;
19049;SDS011;9657;45.940;12.840;2023-02-03T10:25:20;49.97;;;31.53;;
19049;SDS011;9657;45.940;12.840;2023-02-03T10:27:55;48.43;;;31.97;;
19049;SDS011;9657;45.940;12.840;2023-02-03T10:30:27;48.20;;;30.40;;
19049;SDS011;9657;45.940;12.840;2023-02-03T10:32:59;44.83;;;30.43;;
19049;SDS011;9657;45.940;12.840;2023-02-03T10:35:35;44.60;;;29.17;;
19049;SDS011;9657;45.940;12.840;2023-02-03T10:38:08;41.00;;;28.40;;
19049;SDS011;9657;45.940;12.840;2023-02-03T10:40:43;40.67;;;27.87;;
19049;SDS011;9657;45.940;12.840;2023-02-03T10:43:10;42.27;;;24.77;;
19049;SDS011;9657;45.940;12.840;2023-02-03T10:46:01;41.07;;;25.57;;
19049;SDS011;9657;45.940;12.840;2023-02-03T10:48:28;42.40;;;24.00;;
19049;SDS011;9657;45.940;12.840;2023-02-03T10:50:55;39.80;;;23.73;;
19049;SDS011;9657;45.940;12.840;2023-02-03T10:53:26;42.37;;;24.93;;
19049;SDS011;9657;45.940;12.840;2023-02-03T10:56:00;38.67;;;22.50;;
19049;SDS011;9657;45.940;12.840;2023-02-03T10:58:30;43.10;;;23.47;;
19049;SDS011;9657;45.940;12.840;2023-02-03T11:01:05;40.93;;;24.63;;
19049;SDS011;9657;45.940;12.840;2023-02-03T11:03:35;42.27;;;22.93;;
19049;SDS011;9657;45.940;12.840;2023-02-03T11:06:05;39.23;;;25.30;;
19049;SDS011;9657;45.940;12.840;2023-02-03T11:08:34;41.53;;;23.83;;
19049;SDS011;9657;45.940;12.840;2023-02-03T11:11:04;37.23;;;22.77;;
19049;SDS011;9657;45.940;12.840;2023-02-03T11:13:32;47.77;;;24.70;;
19049;SDS011;9657;45.940;12.840;2023-02-03T11:16:00;38.33;;;23.63;;
19049;SDS011;9657;45.940;12.840;2023-02-03T11:18:38;45.63;;;23.10;;
19049;SDS011;9657;45.940;12.840;2023-02-03T11:21:16;39.70;;;23.70;;
19049;SDS011;9657;45.940;12.840;2023-02-03T11:23:47;47.97;;;24.53;;
19049;SDS011;9657;45.940;12.840;2023-02-03T11:26:20;40.67;;;24.13;;
19049;SDS011;9657;45.940;12.840;2023-02-03T11:28:51;40.97;;;23.67;;
19049;SDS011;9657;45.940;12.840;2023-02-03T11:31:21;49.07;;;25.23;;
19049;SDS011;9657;45.940;12.840;2023-02-03T11:33:53;42.23;;;24.53;;
19049;SDS011;9657;45.940;12.840;2023-02-03T11:36:26;50.07;;;24.80;;
19049;SDS011;9657;45.940;12.840;2023-02-03T11:39:13;48.10;;;24.87;;
19049;SDS011;9657;45.940;12.840;2023-02-03T11:41:44;54.87;;;24.17;;
19049;SDS011;9657;45.940;12.840;2023-02-03T11:44:15;49.47;;;25.27;;
19049;SDS011;9657;45.940;12.840;2023-02-03T11:46:43;45.93;;;23.80;;
19049;SDS011;9657;45.940;12.840;2023-02-03T11:49:18;49.80;;;24.50;;
19049;SDS011;9657;45.940;12.840;2023-02-03T11:52:24;50.17;;;27.87;;
19049;SDS011;9657;45.940;12.840;2023-02-03T11:55:27;54.40;;;26.23;;
19049;SDS011;9657;45.940;12.840;2023-02-03T11:58:12;56.90;;;28.70;;
19049;SDS011;9657;45.940;12.840;2023-02-03T12:01:05;52.53;;;27.73;;
19049;SDS011;9657;45.940;12.840;2023-02-03T12:03:48;52.00;;;27.97;;
19049;SDS011;9657;45.940;12.840;2023-02-03T12:09:28;56.17;;;29.23;;
19049;SDS011;9657;45.940;12.840;2023-02-03T12:14:57;59.47;;;28.90;;
19049;SDS011;9657;45.940;12.840;2023-02-03T12:17:39;50.97;;;26.80;;
19049;SDS011;9657;45.940;12.840;2023-02-03T12:20:30;46.17;;;27.17;;
19049;SDS011;9657;45.940;12.840;2023-02-03T12:23:23;50.23;;;27.27;;
19049;SDS011;9657;45.940;12.840;2023-02-03T12:26:04;57.23;;;27.03;;
19049;SDS011;9657;45.940;12.840;2023-02-03T12:28:42;56.53;;;27.70;;
19049;SDS011;9657;45.940;12.840;2023-02-03T12:31:14;57.63;;;27.43;;
19049;SDS011;9657;45.940;12.840;2023-02-03T12:33:49;51.20;;;23.93;;
19049;SDS011;9657;45.940;12.840;2023-02-03T12:36:24;48.50;;;23.37;;
19049;SDS011;9657;45.940;12.840;2023-02-03T12:38:55;46.33;;;23.97;;
19049;SDS011;9657;45.940;12.840;2023-02-03T12:41:28;56.43;;;23.63;;
19049;SDS011;9657;45.940;12.840;2023-02-03T12:44:00;48.23;;;23.70;;
19049;SDS011;9657;45.940;12.840;2023-02-03T12:46:31;53.87;;;25.23;;
19049;SDS011;9657;45.940;12.840;2023-02-03T12:49:04;56.67;;;26.37;;
19049;SDS011;9657;45.940;12.840;2023-02-03T12:51:40;52.43;;;22.93;;
19049;SDS011;9657;45.940;12.840;2023-02-03T12:54:17;53.97;;;24.03;;
19049;SDS011;9657;45.940;12.840;2023-02-03T12:56:53;46.93;;;23.50;;
19049;SDS011;9657;45.940;12.840;2023-02-03T12:59:24;49.90;;;22.83;;
19049;SDS011;9657;45.940;12.840;2023-02-03T13:01:55;57.23;;;23.93;;
19049;SDS011;9657;45.940;12.840;2023-02-03T13:04:27;51.97;;;24.20;;
19049;SDS011;9657;45.940;12.840;2023-02-03T13:07:02;51.07;;;25.53;;
19049;SDS011;9657;45.940;12.840;2023-02-03T13:09:37;56.37;;;25.30;;
19049;SDS011;9657;45.940;12.840;2023-02-03T13:12:07;57.77;;;25.13;;
19049;SDS011;9657;45.940;12.840;2023-02-03T13:14:40;52.37;;;24.17;;
19049;SDS011;9657;45.940;12.840;2023-02-03T13:17:11;52.57;;;25.87;;
19049;SDS011;9657;45.940;12.840;2023-02-03T13:19:44;50.17;;;25.80;;
19049;SDS011;9657;45.940;12.840;2023-02-03T13:22:14;62.07;;;24.60;;
19049;SDS011;9657;45.940;12.840;2023-02-03T13:24:44;59.77;;;24.40;;
19049;SDS011;9657;45.940;12.840;2023-02-03T13:30:19;56.33;;;26.70;;
19049;SDS011;9657;45.940;12.840;2023-02-03T13:39:26;62.53;;;28.97;;
19049;SDS011;9657;45.940;12.840;2023-02-03T13:42:12;62.87;;;30.17;;
19049;SDS011;9657;45.940;12.840;2023-02-03T13:44:47;59.00;;;29.90;;
19049;SDS011;9657;45.940;12.840;2023-02-03T13:47:17;60.07;;;30.00;;
19049;SDS011;9657;45.940;12.840;2023-02-03T13:49:48;55.73;;;25.97;;
19049;SDS011;9657;45.940;12.840;2023-02-03T13:52:25;56.10;;;24.73;;
19049;SDS011;9657;45.940;12.840;2023-02-03T13:54:57;49.07;;;23.87;;
19049;SDS011;9657;45.940;12.840;2023-02-03T13:57:28;62.33;;;27.73;;
19049;SDS011;9657;45.940;12.840;2023-02-03T13:59:59;58.47;;;26.13;;
19049;SDS011;9657;45.940;12.840;2023-02-03T14:02:30;50.50;;;26.23;;
19049;SDS011;9657;45.940;12.840;2023-02-03T14:11:37;58.43;;;25.03;;
19049;SDS011;9657;45.940;12.840;2023-02-03T14:23:37;64.07;;;23.60;;
19049;SDS011;9657;45.940;12.840;2023-02-03T14:26:14;53.43;;;24.63;;
19049;SDS011;9657;45.940;12.840;2023-02-03T14:28:46;43.40;;;22.23;;
19049;SDS011;9657;45.940;12.840;2023-02-03T14:31:17;54.67;;;24.77;;
19049;SDS011;9657;45.940;12.840;2023-02-03T14:33:51;50.63;;;23.60;;
19049;SDS011;9657;45.940;12.840;2023-02-03T14:36:41;57.07;;;28.87;;
19049;SDS011;9657;45.940;12.840;2023-02-03T14:45:41;66.83;;;29.37;;
19049;SDS011;9657;45.940;12.840;2023-02-03T14:48:27;56.20;;;28.90;;
19049;SDS011;9657;45.940;12.840;2023-02-03T14:51:09;57.33;;;28.20;;
19049;SDS011;9657;45.940;12.840;2023-02-03T14:53:53;52.10;;;28.07;;
19049;SDS011;9657;45.940;12.840;2023-02-03T14:56:38;52.03;;;27.40;;
19049;SDS011;9657;45.940;12.840;2023-02-03T14:59:29;43.70;;;26.67;;
19049;SDS011;9657;45.940;12.840;2023-02-03T15:02:07;64.30;;;27.97;;
19049;SDS011;9657;45.940;12.840;2023-02-03T15:04:40;57.10;;;29.30;;
19049;SDS011;9657;45.940;12.840;2023-02-03T15:07:09;57.63;;;29.13;;
19049;SDS011;9657;45.940;12.840;2023-02-03T15:10:00;65.77;;;28.30;;
19049;SDS011;9657;45.940;12.840;2023-02-03T15:12:33;64.73;;;29.63;;
19049;SDS011;9657;45.940;12.840;2023-02-03T15:15:12;62.80;;;26.77;;
19049;SDS011;9657;45.940;12.840;2023-02-03T15:17:48;54.50;;;24.23;;
19049;SDS011;9657;45.940;12.840;2023-02-03T15:23:16;56.07;;;24.70;;
19049;SDS011;9657;45.940;12.840;2023-02-03T15:25:45;68.50;;;26.90;;
19049;SDS011;9657;45.940;12.840;2023-02-03T15:28:18;62.53;;;24.07;;
19049;SDS011;9657;45.940;12.840;2023-02-03T15:30:46;63.70;;;25.67;;
19049;SDS011;9657;45.940;12.840;2023-02-03T15:33:19;61.33;;;25.13;;